Terminal Aerodrome Forecast
Issued by NWS San Angelo, TX

Home | Current Version | Previous Version | Text Only | Print | Product List | Glossary On
Versions: 1 2 3 4 5 6 7 8 9 10 11 12 13 14 15 16 17 18 19 20
000
FTUS44 KSJT 170500
TAFSJT
TAF
KSJT 170520Z 1706/1806 VRB04KT P6SM BKN100
     FM171200 VRB03KT P6SM SCT020 SCT120
     FM171800 08008KT P6SM SCT060 BKN200=

USA.gov is the U.S. government's official web portal to all federal, state and local government web resources and services.